• Join FlightAware (Why Join?)
  • Login
  • US Flag GB Flag 
17:35 EDT


 

Airport Tracker/Info


-or-


 

Live Flight TrackerFlight Track Log ✈ UPS1122 ✈ 26-Apr-2013 ✈ KPHL - KBDL

Flight Track Log - Related Links

Times and Time Zones

All times are in EDT time to prevent confusion due to time zone crossing. See the UPS1122 flight status page for this flight to view local times or setup timezone preferences in your user account.

Time Position Orientation Groundspeed Altitude Reporting Facility
EDT Latitude Longitude Course Direction KTS MPH feet Rate Location/Type
03:34 39.8621 -75.2681 67° East 146 168 600  Level FlightAware ADS-B
03:34 39.8613 -75.2707 248° West 144 166 800 3,600 Climbing FlightAware ADS-B
03:34 39.8592 -75.2762 244° Southwest 146 168 1,200 2,280 Climbing FlightAware ADS-B
03:34 39.8572 -75.2810 242° Southwest 149 171 1,300 960 Climbing FlightAware ADS-B
03:35 39.8532 -75.2905 241° Southwest 157 181 1,500 1,260 Climbing FlightAware ADS-B
03:35 39.8492 -75.2998 241° Southwest 165 190 1,800 1,200 Climbing FlightAware ADS-B
03:35 39.8439 -75.3123 241° Southwest 182 209 2,000 1,500 Climbing FlightAware ADS-B
03:35 39.8374 -75.3269 240° Southwest 199 229 2,500 2,160 Climbing FlightAware ADS-B
03:35 39.8350 -75.3321 239° Southwest 202 232 2,700 2,640 Climbing FlightAware ADS-B
03:35 39.8330 -75.3357 234° Southwest 205 236 2,900 2,520 Climbing FlightAware ADS-B
03:35 39.8308 -75.3386 225° Southwest 209 241 3,000 2,520 Climbing FlightAware ADS-B
03:35 39.8281 -75.3414 219° Southwest 214 246 3,200 3,000 Climbing FlightAware ADS-B
03:35 39.8246 -75.3440 210° Southwest 219 252 3,400 2,520 Climbing FlightAware ADS-B
03:36 39.8211 -75.3457 200° South 224 258 3,500 3,000 Climbing FlightAware ADS-B
03:36 39.8180 -75.3466 193° South 228 262 3,700 2,520 Climbing FlightAware ADS-B
03:36 39.8137 -75.3471 185° South 233 268 3,800 2,520 Climbing FlightAware ADS-B
03:36 39.8102 -75.3469 177° South 237 273 4,000 2,520 Climbing FlightAware ADS-B
03:36 39.8067 -75.3461 170° South 240 276 4,100 2,520 Climbing FlightAware ADS-B
03:36 39.8031 -75.3447 163° South 242 278 4,300 3,000 Climbing FlightAware ADS-B
03:36 39.7999 -75.3430 158° South 245 282 4,400 3,000 Climbing FlightAware ADS-B
03:36 39.7966 -75.3405 150° Southeast 246 283 4,600 3,420 Climbing FlightAware ADS-B
03:36 39.7935 -75.3375 143° Southeast 247 284 4,800 3,420 Climbing FlightAware ADS-B
03:36 39.7909 -75.3341 135° Southeast 247 284 5,000 3,960 Climbing FlightAware ADS-B
03:36 39.7886 -75.3307 131° Southeast 247 284 5,200 3,000 Climbing FlightAware ADS-B
03:36 39.7867 -75.3270 124° Southeast 248 285 5,300 3,000 Climbing FlightAware ADS-B
03:36 39.7850 -75.3228 118° Southeast 249 287 5,500 2,520 Climbing FlightAware ADS-B
03:36 39.7836 -75.3180 111° Southeast 251 289 5,600 2,220 Climbing FlightAware ADS-B
03:36 39.7824 -75.3121 105° East 253 291 5,800 2,220 Climbing FlightAware ADS-B
03:36 39.7818 -75.3053 97° East 258 297 5,900 1,680 Climbing FlightAware ADS-B
03:36 39.7817 -75.3002 91° East 262 302 6,000 2,520 Climbing FlightAware ADS-B
03:37 39.7829 -75.2750 86° East 270 311 6,700 2,880 Climbing FlightAware ADS-B
03:37 39.7838 -75.2495 87° East 278 320 7,500 3,180 Climbing FlightAware ADS-B
03:37 39.7842 -75.2313 88° East 282 325 8,100 2,760 Climbing FlightAware ADS-B
03:37 39.7847 -75.2050 89° East 290 334 8,700 2,760 Climbing FlightAware ADS-B
03:38 39.7854 -75.1789 88° East 297 342 9,500 2,400 Climbing FlightAware ADS-B
03:38 39.7862 -75.1241 89° East 325 374 10,500 1,500 Climbing FlightAware ADS-B
03:39 39.7870 -75.0677 89° East 365 420 10,900 1,200 Climbing FlightAware ADS-B
03:39 39.7878 -74.9980 89° East 375 432 11,700 660 Climbing FlightAware ADS-B
03:40 39.7890 -74.9284 89° East 371 427 11,600  Descending FlightAware ADS-B
03:40 39.7906 -74.8552 88° East 370 426 11,700 1,140 Climbing FlightAware ADS-B
03:41 39.7924 -74.7801 88° East 377 434 12,900 2,280 Climbing FlightAware ADS-B
03:41 39.7937 -74.7592 85° East 380 437 13,300 3,120 Climbing FlightAware ADS-B
03:41 39.7995 -74.7319 75° East 379 436 14,000 3,300 Climbing FlightAware ADS-B
03:41 39.8054 -74.7162 64° Northeast 379 436 14,400 3,000 Climbing FlightAware ADS-B
03:41 39.8092 -74.7085 57° Northeast 379 436 14,600 3,420 Climbing FlightAware ADS-B
03:41 39.8128 -74.7023 53° Northeast 378 435 14,800 3,240 Climbing FlightAware ADS-B
03:41 39.8221 -74.6894 47° Northeast 376 433 15,200 2,880 Climbing FlightAware ADS-B
03:42 39.8644 -74.6462 38° Northeast 377 434 16,700 2,820 Climbing FlightAware ADS-B
03:42 39.9068 -74.6051 37° Northeast 383 441 18,100 2,580 Climbing FlightAware ADS-B
03:43 39.9327 -74.5793 37° Northeast 388 447 18,800 2,280 Climbing FlightAware ADS-B
03:43 39.9744 -74.5284 43° Northeast 395 455 20,000 1,980 Climbing FlightAware ADS-B
03:44 40.0132 -74.4714 48° Northeast 412 474 20,900 960 Climbing FlightAware ADS-B
03:44 40.0523 -74.4130 49° Northeast 423 487 21,000 60 Climbing FlightAware ADS-B
03:45 40.0917 -74.3546 49° Northeast 427 491 21,000  Level FlightAware ADS-B
03:45 40.1316 -74.2955 49° Northeast 426 490 21,000  Level FlightAware ADS-B
03:46 40.1739 -74.2330 48° Northeast 424 488 21,000  Level FlightAware ADS-B
03:46 40.2155 -74.1716 48° Northeast 426 490 21,000  Level FlightAware ADS-B
03:47 40.2547 -74.1135 49° Northeast 426 490 21,000  Level FlightAware ADS-B
03:47 40.2954 -74.0532 48° Northeast 424 488 21,000  Level FlightAware ADS-B
03:48 40.3346 -73.9946 49° Northeast 424 488 21,000  Level FlightAware ADS-B
03:48 40.3741 -73.9354 49° Northeast 425 489 21,000  Level FlightAware ADS-B
03:49 40.4137 -73.8761 49° Northeast 428 493 21,000  Level FlightAware ADS-B
03:49 40.4534 -73.8165 49° Northeast 427 491 21,000  Level FlightAware ADS-B
03:50 40.4928 -73.7572 49° Northeast 428 493 21,000  Level FlightAware ADS-B
03:50 40.5323 -73.6976 49° Northeast 431 496 21,000  Level FlightAware ADS-B
03:51 40.5722 -73.6373 49° Northeast 432 497 21,000  Level FlightAware ADS-B
03:51 40.6119 -73.5773 49° Northeast 432 497 21,000  Level FlightAware ADS-B
03:52 40.6513 -73.5175 49° Northeast 434 499 21,000  Level FlightAware ADS-B
03:52 40.6908 -73.4576 49° Northeast 431 496 21,000  Level FlightAware ADS-B
03:53 40.7305 -73.3972 49° Northeast 432 497 21,000  Level FlightAware ADS-B
03:53 40.7704 -73.3364 49° Northeast 436 502 21,000  Level FlightAware ADS-B
03:54 40.8149 -73.2762 46° Northeast 437 503 21,000  Level FlightAware ADS-B
03:54 40.8608 -73.2223 42° Northeast 436 502 21,000  Level FlightAware ADS-B
03:55 40.9091 -73.1661 41° Northeast 441 507 21,000 -300 Level FlightAware ADS-B
03:56 40.9557 -73.1117 41° Northeast 440 506 20,700 -1,800 Descending FlightAware ADS-B
03:56 41.0150 -73.0422 41° Northeast 437 503 18,900 -2,580 Descending FlightAware ADS-B
03:57 41.0830 -72.9630 41° Northeast 423 487 17,100 -2,520 Descending FlightAware
03:58 41.1390 -72.8970 42° Northeast 417 480 15,300 -2,820 Descending FlightAware
03:58 41.1950 -72.8300 42° Northeast 414 476 13,400 -2,400 Descending FlightAware
03:59 41.2560 -72.7590 41° Northeast 387 445 11,900 -1,920 Descending FlightAware
04:00 41.3530 -72.7200 17° North 361 415 9,800 -1,380 Descending FlightAware
04:01 41.3900 -72.7280 351° North 361 415 9,800 -180 Level FlightAware
04:01 41.4670 -72.7500 348° North 313 360 9,600 -180 Descending FlightAware
04:02 41.5040 -72.7590 350° North 313 360 9,600  Level FlightAware
04:02 41.5280 -72.7660 348° North 313 360 9,600  Level FlightAware
04:03 41.5520 -72.7720 349° North 313 360 9,600 -2,280 Level FlightAware
04:03 41.6122 -72.7872 349° North 278 320 7,600 -3,000 Descending Boston Center
04:04 41.6578 -72.8014 347° North 266 306 6,200 -1,800 Descending Boston Center
04:04 41.6767 -72.8014 360° North 268 308 5,800 -1,320 Descending Boston Center
04:05 41.7244 -72.8183 345° North 231 266 4,900 -1,320 Descending Boston Center
04:05 41.7494 -72.8214 355° North 243 280 4,500 -1,140 Descending Boston Center
04:06 41.7869 -72.8356 344° North 238 274 3,800 -840 Descending Boston Center
04:06 41.7975 -72.8300 21° North 233 268 3,700 -1,140 Descending Boston Center
04:07 41.8392 -72.8219 North 196 226 2,700 -1,320 Descending Boston Center
04:07 41.8497 -72.8053 50° Northeast 213 245 2,400 -840 Descending Boston Center
04:08 41.8725 -72.7775 42° Northeast 158 182 1,900 -840 Descending Boston Center
04:08 41.8789 -72.7692 44° Northeast 163 188 1,600 -840 Descending Boston Center
04:09 41.8997 -72.7414 45° Northeast 128 147 1,100 -720 Descending Boston Center
04:09 41.9061 -72.7358 33° Northeast 141 162 900 -720 Descending Boston Center
04:10 41.9228 -72.7136 45° Northeast 122 140 400 -780 Descending Boston Center
04:12 41.9333 -72.6833 45° Northeast  Level FlightAware Approximate
04:19 41.9392 -72.6834 45° Northeast  Level Estimated
04:20 41.9333 -72.6833 45° Northeast  Level FlightAware Approximate
04:21 41.9392 -72.6834 45° Northeast  Level Estimated